sensor_id;sensor_type;location;lat;lon;timestamp;P1;durP1;ratioP1;P2;durP2;ratioP2
9761;SDS011;4920;49.594;11.022;2023-07-08T00:00:27;6.05;;;4.80;;
9761;SDS011;4920;49.594;11.022;2023-07-08T00:02:56;6.78;;;4.82;;
9761;SDS011;4920;49.594;11.022;2023-07-08T00:05:25;6.45;;;4.80;;
9761;SDS011;4920;49.594;11.022;2023-07-08T00:07:54;6.97;;;4.93;;
9761;SDS011;4920;49.594;11.022;2023-07-08T00:10:24;6.95;;;4.60;;
9761;SDS011;4920;49.594;11.022;2023-07-08T00:12:54;6.18;;;4.40;;
9761;SDS011;4920;49.594;11.022;2023-07-08T00:15:25;5.13;;;4.63;;
9761;SDS011;4920;49.594;11.022;2023-07-08T00:17:56;6.38;;;4.80;;
9761;SDS011;4920;49.594;11.022;2023-07-08T00:20:27;6.05;;;5.05;;
9761;SDS011;4920;49.594;11.022;2023-07-08T00:23:00;7.22;;;4.90;;
9761;SDS011;4920;49.594;11.022;2023-07-08T00:25:30;6.00;;;5.10;;
9761;SDS011;4920;49.594;11.022;2023-07-08T00:28:00;10.73;;;5.03;;
9761;SDS011;4920;49.594;11.022;2023-07-08T00:30:29;7.05;;;4.88;;
9761;SDS011;4920;49.594;11.022;2023-07-08T00:32:59;7.28;;;5.50;;
9761;SDS011;4920;49.594;11.022;2023-07-08T00:35:31;7.50;;;5.05;;
9761;SDS011;4920;49.594;11.022;2023-07-08T00:38:02;5.63;;;4.78;;
9761;SDS011;4920;49.594;11.022;2023-07-08T00:40:47;5.32;;;4.82;;
9761;SDS011;4920;49.594;11.022;2023-07-08T00:43:19;6.03;;;5.30;;
9761;SDS011;4920;49.594;11.022;2023-07-08T00:45:53;6.70;;;4.95;;
9761;SDS011;4920;49.594;11.022;2023-07-08T00:48:32;7.80;;;5.40;;
9761;SDS011;4920;49.594;11.022;2023-07-08T00:51:02;6.70;;;4.72;;
9761;SDS011;4920;49.594;11.022;2023-07-08T00:53:32;7.28;;;4.85;;
9761;SDS011;4920;49.594;11.022;2023-07-08T00:56:06;6.60;;;4.90;;
9761;SDS011;4920;49.594;11.022;2023-07-08T00:58:38;6.70;;;4.80;;
9761;SDS011;4920;49.594;11.022;2023-07-08T01:01:11;6.43;;;4.82;;
9761;SDS011;4920;49.594;11.022;2023-07-08T01:03:42;7.47;;;4.95;;
9761;SDS011;4920;49.594;11.022;2023-07-08T01:06:16;5.93;;;4.85;;
9761;SDS011;4920;49.594;11.022;2023-07-08T01:08:46;6.72;;;4.82;;
9761;SDS011;4920;49.594;11.022;2023-07-08T01:11:20;5.75;;;5.15;;
9761;SDS011;4920;49.594;11.022;2023-07-08T01:13:50;6.13;;;5.07;;
9761;SDS011;4920;49.594;11.022;2023-07-08T01:16:20;6.05;;;4.88;;
9761;SDS011;4920;49.594;11.022;2023-07-08T01:18:50;7.22;;;5.40;;
9761;SDS011;4920;49.594;11.022;2023-07-08T01:21:28;6.32;;;4.57;;
9761;SDS011;4920;49.594;11.022;2023-07-08T01:24:02;7.22;;;5.15;;
9761;SDS011;4920;49.594;11.022;2023-07-08T01:26:34;6.57;;;5.00;;
9761;SDS011;4920;49.594;11.022;2023-07-08T01:29:06;6.75;;;4.80;;
9761;SDS011;4920;49.594;11.022;2023-07-08T01:31:35;5.13;;;4.55;;
9761;SDS011;4920;49.594;11.022;2023-07-08T01:34:05;6.05;;;4.80;;
9761;SDS011;4920;49.594;11.022;2023-07-08T01:36:37;5.13;;;4.63;;
9761;SDS011;4920;49.594;11.022;2023-07-08T01:39:12;5.82;;;4.85;;
9761;SDS011;4920;49.594;11.022;2023-07-08T01:41:44;5.97;;;4.80;;
9761;SDS011;4920;49.594;11.022;2023-07-08T01:44:23;7.85;;;4.97;;
9761;SDS011;4920;49.594;11.022;2023-07-08T01:46:55;6.88;;;4.85;;
9761;SDS011;4920;49.594;11.022;2023-07-08T01:49:26;6.68;;;4.93;;
9761;SDS011;4920;49.594;11.022;2023-07-08T01:51:55;5.55;;;4.90;;
9761;SDS011;4920;49.594;11.022;2023-07-08T01:54:27;5.45;;;4.82;;
9761;SDS011;4920;49.594;11.022;2023-07-08T01:57:14;6.68;;;5.07;;
9761;SDS011;4920;49.594;11.022;2023-07-08T01:59:43;5.97;;;5.35;;
9761;SDS011;4920;49.594;11.022;2023-07-08T02:02:12;9.45;;;5.18;;
9761;SDS011;4920;49.594;11.022;2023-07-08T02:04:40;6.47;;;5.13;;
9761;SDS011;4920;49.594;11.022;2023-07-08T02:07:11;6.18;;;5.13;;
9761;SDS011;4920;49.594;11.022;2023-07-08T02:09:42;8.23;;;5.28;;
9761;SDS011;4920;49.594;11.022;2023-07-08T02:12:10;6.47;;;5.00;;
9761;SDS011;4920;49.594;11.022;2023-07-08T02:14:39;7.75;;;5.40;;
9761;SDS011;4920;49.594;11.022;2023-07-08T02:17:08;5.13;;;4.60;;
9761;SDS011;4920;49.594;11.022;2023-07-08T02:19:37;6.65;;;5.22;;
9761;SDS011;4920;49.594;11.022;2023-07-08T02:22:06;6.82;;;5.30;;
9761;SDS011;4920;49.594;11.022;2023-07-08T02:24:34;6.20;;;5.38;;
9761;SDS011;4920;49.594;11.022;2023-07-08T02:27:05;5.93;;;5.32;;
9761;SDS011;4920;49.594;11.022;2023-07-08T02:29:33;6.85;;;5.32;;
9761;SDS011;4920;49.594;11.022;2023-07-08T02:32:04;6.00;;;5.20;;
9761;SDS011;4920;49.594;11.022;2023-07-08T02:34:36;7.05;;;5.03;;
9761;SDS011;4920;49.594;11.022;2023-07-08T02:37:06;6.82;;;5.22;;
9761;SDS011;4920;49.594;11.022;2023-07-08T02:39:35;7.72;;;4.97;;
9761;SDS011;4920;49.594;11.022;2023-07-08T02:42:05;6.85;;;4.80;;
9761;SDS011;4920;49.594;11.022;2023-07-08T02:44:35;7.80;;;4.88;;
9761;SDS011;4920;49.594;11.022;2023-07-08T02:47:04;6.03;;;5.22;;
9761;SDS011;4920;49.594;11.022;2023-07-08T02:49:32;8.20;;;5.30;;
9761;SDS011;4920;49.594;11.022;2023-07-08T02:52:01;8.70;;;5.55;;
9761;SDS011;4920;49.594;11.022;2023-07-08T02:54:30;7.15;;;4.90;;
9761;SDS011;4920;49.594;11.022;2023-07-08T02:56:59;6.53;;;5.85;;
9761;SDS011;4920;49.594;11.022;2023-07-08T02:59:29;9.43;;;5.05;;
9761;SDS011;4920;49.594;11.022;2023-07-08T03:01:58;7.70;;;5.50;;
9761;SDS011;4920;49.594;11.022;2023-07-08T03:04:27;6.80;;;5.03;;
9761;SDS011;4920;49.594;11.022;2023-07-08T03:06:56;6.68;;;5.00;;
9761;SDS011;4920;49.594;11.022;2023-07-08T03:09:25;5.65;;;4.95;;
9761;SDS011;4920;49.594;11.022;2023-07-08T03:11:55;5.78;;;5.22;;
9761;SDS011;4920;49.594;11.022;2023-07-08T03:14:24;7.22;;;5.20;;
9761;SDS011;4920;49.594;11.022;2023-07-08T03:16:54;7.63;;;5.28;;
9761;SDS011;4920;49.594;11.022;2023-07-08T03:19:23;7.15;;;5.57;;
9761;SDS011;4920;49.594;11.022;2023-07-08T03:21:52;7.47;;;5.30;;
9761;SDS011;4920;49.594;11.022;2023-07-08T03:24:21;7.18;;;5.53;;
9761;SDS011;4920;49.594;11.022;2023-07-08T03:26:51;8.45;;;5.80;;
9761;SDS011;4920;49.594;11.022;2023-07-08T03:29:23;7.40;;;5.70;;
9761;SDS011;4920;49.594;11.022;2023-07-08T03:31:52;6.90;;;5.57;;
9761;SDS011;4920;49.594;11.022;2023-07-08T03:34:22;5.82;;;5.20;;
9761;SDS011;4920;49.594;11.022;2023-07-08T03:36:51;6.93;;;5.70;;
9761;SDS011;4920;49.594;11.022;2023-07-08T03:39:22;7.00;;;5.93;;
9761;SDS011;4920;49.594;11.022;2023-07-08T03:41:52;8.07;;;6.10;;
9761;SDS011;4920;49.594;11.022;2023-07-08T03:44:21;7.97;;;5.73;;
9761;SDS011;4920;49.594;11.022;2023-07-08T03:46:50;7.82;;;5.90;;
9761;SDS011;4920;49.594;11.022;2023-07-08T03:49:20;7.20;;;5.30;;
9761;SDS011;4920;49.594;11.022;2023-07-08T03:51:54;8.00;;;5.60;;
9761;SDS011;4920;49.594;11.022;2023-07-08T03:54:23;7.05;;;5.80;;
9761;SDS011;4920;49.594;11.022;2023-07-08T03:56:56;7.53;;;5.73;;
9761;SDS011;4920;49.594;11.022;2023-07-08T03:59:26;6.67;;;5.43;;
9761;SDS011;4920;49.594;11.022;2023-07-08T04:01:57;9.55;;;5.90;;
9761;SDS011;4920;49.594;11.022;2023-07-08T04:04:29;8.27;;;5.53;;
9761;SDS011;4920;49.594;11.022;2023-07-08T04:06:57;6.57;;;5.20;;
9761;SDS011;4920;49.594;11.022;2023-07-08T04:09:26;9.77;;;5.80;;
9761;SDS011;4920;49.594;11.022;2023-07-08T04:11:55;7.07;;;5.57;;
9761;SDS011;4920;49.594;11.022;2023-07-08T04:14:24;6.13;;;5.50;;
9761;SDS011;4920;49.594;11.022;2023-07-08T04:16:54;7.88;;;5.63;;
9761;SDS011;4920;49.594;11.022;2023-07-08T04:19:25;7.85;;;5.68;;
9761;SDS011;4920;49.594;11.022;2023-07-08T04:21:56;6.22;;;5.63;;
9761;SDS011;4920;49.594;11.022;2023-07-08T04:24:25;7.20;;;5.70;;
9761;SDS011;4920;49.594;11.022;2023-07-08T04:26:53;7.70;;;5.40;;
9761;SDS011;4920;49.594;11.022;2023-07-08T04:29:22;8.00;;;5.47;;
9761;SDS011;4920;49.594;11.022;2023-07-08T04:31:51;9.38;;;5.20;;
9761;SDS011;4920;49.594;11.022;2023-07-08T04:34:20;8.63;;;5.15;;
9761;SDS011;4920;49.594;11.022;2023-07-08T04:36:49;6.20;;;5.20;;
9761;SDS011;4920;49.594;11.022;2023-07-08T04:39:19;7.43;;;5.38;;
9761;SDS011;4920;49.594;11.022;2023-07-08T04:41:47;6.95;;;5.10;;
9761;SDS011;4920;49.594;11.022;2023-07-08T04:44:16;7.07;;;5.38;;
9761;SDS011;4920;49.594;11.022;2023-07-08T04:46:46;5.88;;;5.05;;
9761;SDS011;4920;49.594;11.022;2023-07-08T04:49:18;7.90;;;5.30;;
9761;SDS011;4920;49.594;11.022;2023-07-08T04:51:47;7.18;;;5.25;;
9761;SDS011;4920;49.594;11.022;2023-07-08T04:54:15;6.25;;;5.22;;
9761;SDS011;4920;49.594;11.022;2023-07-08T04:56:49;7.32;;;5.45;;
9761;SDS011;4920;49.594;11.022;2023-07-08T04:59:20;6.45;;;5.07;;
9761;SDS011;4920;49.594;11.022;2023-07-08T05:01:50;7.13;;;5.18;;
9761;SDS011;4920;49.594;11.022;2023-07-08T05:04:20;5.72;;;5.05;;
9761;SDS011;4920;49.594;11.022;2023-07-08T05:06:50;6.60;;;4.88;;
9761;SDS011;4920;49.594;11.022;2023-07-08T05:09:20;5.80;;;4.90;;
9761;SDS011;4920;49.594;11.022;2023-07-08T05:11:52;6.00;;;4.75;;
9761;SDS011;4920;49.594;11.022;2023-07-08T05:14:21;7.53;;;5.03;;
9761;SDS011;4920;49.594;11.022;2023-07-08T05:16:50;7.03;;;4.90;;
9761;SDS011;4920;49.594;11.022;2023-07-08T05:19:18;7.70;;;5.28;;
9761;SDS011;4920;49.594;11.022;2023-07-08T05:21:48;6.25;;;4.65;;
9761;SDS011;4920;49.594;11.022;2023-07-08T05:24:17;7.43;;;4.70;;
9761;SDS011;4920;49.594;11.022;2023-07-08T05:26:47;5.97;;;4.93;;
9761;SDS011;4920;49.594;11.022;2023-07-08T05:29:16;7.97;;;4.90;;
9761;SDS011;4920;49.594;11.022;2023-07-08T05:31:44;5.78;;;5.28;;
9761;SDS011;4920;49.594;11.022;2023-07-08T05:34:14;5.93;;;5.03;;
9761;SDS011;4920;49.594;11.022;2023-07-08T05:36:43;7.35;;;5.20;;
9761;SDS011;4920;49.594;11.022;2023-07-08T05:39:12;7.65;;;5.10;;
9761;SDS011;4920;49.594;11.022;2023-07-08T05:41:41;6.20;;;4.88;;
9761;SDS011;4920;49.594;11.022;2023-07-08T05:44:11;6.10;;;4.95;;
9761;SDS011;4920;49.594;11.022;2023-07-08T05:46:39;16.27;;;6.65;;
9761;SDS011;4920;49.594;11.022;2023-07-08T05:49:08;7.18;;;5.38;;
9761;SDS011;4920;49.594;11.022;2023-07-08T05:51:37;6.88;;;4.88;;
9761;SDS011;4920;49.594;11.022;2023-07-08T05:54:05;6.10;;;4.97;;
9761;SDS011;4920;49.594;11.022;2023-07-08T05:56:34;5.38;;;4.82;;
9761;SDS011;4920;49.594;11.022;2023-07-08T05:59:03;7.45;;;4.82;;
9761;SDS011;4920;49.594;11.022;2023-07-08T06:01:33;7.30;;;4.40;;
9761;SDS011;4920;49.594;11.022;2023-07-08T06:04:02;7.40;;;5.13;;
9761;SDS011;4920;49.594;11.022;2023-07-08T06:06:31;5.43;;;4.78;;
9761;SDS011;4920;49.594;11.022;2023-07-08T06:09:00;6.05;;;5.28;;
9761;SDS011;4920;49.594;11.022;2023-07-08T06:11:29;5.95;;;4.82;;
9761;SDS011;4920;49.594;11.022;2023-07-08T06:13:59;6.50;;;5.18;;
9761;SDS011;4920;49.594;11.022;2023-07-08T06:16:28;6.78;;;4.70;;
9761;SDS011;4920;49.594;11.022;2023-07-08T06:19:08;5.40;;;4.90;;
9761;SDS011;4920;49.594;11.022;2023-07-08T06:21:37;7.45;;;4.63;;
9761;SDS011;4920;49.594;11.022;2023-07-08T06:24:06;5.85;;;5.25;;
9761;SDS011;4920;49.594;11.022;2023-07-08T06:26:35;7.65;;;5.18;;
9761;SDS011;4920;49.594;11.022;2023-07-08T06:29:04;6.22;;;5.18;;
9761;SDS011;4920;49.594;11.022;2023-07-08T06:31:33;6.20;;;4.95;;
9761;SDS011;4920;49.594;11.022;2023-07-08T06:34:01;7.40;;;4.90;;
9761;SDS011;4920;49.594;11.022;2023-07-08T06:36:32;6.57;;;5.00;;
9761;SDS011;4920;49.594;11.022;2023-07-08T06:39:02;5.30;;;4.80;;
9761;SDS011;4920;49.594;11.022;2023-07-08T06:41:34;12.70;;;6.45;;
9761;SDS011;4920;49.594;11.022;2023-07-08T06:44:02;7.40;;;5.13;;
9761;SDS011;4920;49.594;11.022;2023-07-08T06:46:32;8.32;;;5.10;;
9761;SDS011;4920;49.594;11.022;2023-07-08T06:49:00;7.13;;;5.07;;
9761;SDS011;4920;49.594;11.022;2023-07-08T06:51:29;6.88;;;5.30;;
9761;SDS011;4920;49.594;11.022;2023-07-08T06:54:00;7.30;;;5.20;;
9761;SDS011;4920;49.594;11.022;2023-07-08T06:56:31;7.32;;;5.47;;
9761;SDS011;4920;49.594;11.022;2023-07-08T06:59:00;7.85;;;5.25;;
9761;SDS011;4920;49.594;11.022;2023-07-08T07:01:28;8.88;;;4.95;;
9761;SDS011;4920;49.594;11.022;2023-07-08T07:03:57;7.60;;;5.50;;
9761;SDS011;4920;49.594;11.022;2023-07-08T07:06:28;6.13;;;4.90;;
9761;SDS011;4920;49.594;11.022;2023-07-08T07:08:58;5.40;;;4.90;;
9761;SDS011;4920;49.594;11.022;2023-07-08T07:11:27;6.93;;;4.70;;
9761;SDS011;4920;49.594;11.022;2023-07-08T07:13:56;7.15;;;4.80;;
9761;SDS011;4920;49.594;11.022;2023-07-08T07:16:24;5.95;;;4.30;;
9761;SDS011;4920;49.594;11.022;2023-07-08T07:18:53;7.90;;;4.45;;
9761;SDS011;4920;49.594;11.022;2023-07-08T07:21:22;8.48;;;4.82;;
9761;SDS011;4920;49.594;11.022;2023-07-08T07:23:51;5.03;;;4.50;;
9761;SDS011;4920;49.594;11.022;2023-07-08T07:26:21;7.65;;;4.82;;
9761;SDS011;4920;49.594;11.022;2023-07-08T07:28:50;8.10;;;4.70;;
9761;SDS011;4920;49.594;11.022;2023-07-08T07:31:19;7.47;;;4.68;;
9761;SDS011;4920;49.594;11.022;2023-07-08T07:33:47;5.20;;;4.60;;
9761;SDS011;4920;49.594;11.022;2023-07-08T07:36:16;6.28;;;4.82;;
9761;SDS011;4920;49.594;11.022;2023-07-08T07:38:45;8.23;;;4.75;;
9761;SDS011;4920;49.594;11.022;2023-07-08T07:41:14;5.32;;;4.70;;
9761;SDS011;4920;49.594;11.022;2023-07-08T07:43:44;5.75;;;4.35;;
9761;SDS011;4920;49.594;11.022;2023-07-08T07:46:13;7.60;;;5.05;;
9761;SDS011;4920;49.594;11.022;2023-07-08T07:48:42;5.85;;;4.50;;
9761;SDS011;4920;49.594;11.022;2023-07-08T07:51:10;5.57;;;4.40;;
9761;SDS011;4920;49.594;11.022;2023-07-08T07:53:40;6.00;;;3.92;;
9761;SDS011;4920;49.594;11.022;2023-07-08T07:56:09;6.45;;;4.60;;
9761;SDS011;4920;49.594;11.022;2023-07-08T07:58:38;6.72;;;4.50;;
9761;SDS011;4920;49.594;11.022;2023-07-08T08:01:08;6.50;;;4.63;;
9761;SDS011;4920;49.594;11.022;2023-07-08T08:03:37;5.93;;;4.50;;
9761;SDS011;4920;49.594;11.022;2023-07-08T08:06:06;5.57;;;4.05;;
9761;SDS011;4920;49.594;11.022;2023-07-08T08:08:35;5.50;;;4.30;;
9761;SDS011;4920;49.594;11.022;2023-07-08T08:11:04;4.97;;;4.43;;
9761;SDS011;4920;49.594;11.022;2023-07-08T08:13:33;6.15;;;4.72;;
9761;SDS011;4920;49.594;11.022;2023-07-08T08:16:03;4.45;;;3.92;;
9761;SDS011;4920;49.594;11.022;2023-07-08T08:18:33;6.20;;;4.68;;
9761;SDS011;4920;49.594;11.022;2023-07-08T08:21:02;5.50;;;4.20;;
9761;SDS011;4920;49.594;11.022;2023-07-08T08:23:31;5.75;;;4.45;;
9761;SDS011;4920;49.594;11.022;2023-07-08T08:26:00;6.43;;;4.65;;
9761;SDS011;4920;49.594;11.022;2023-07-08T08:28:29;8.65;;;4.60;;
9761;SDS011;4920;49.594;11.022;2023-07-08T08:30:58;5.15;;;4.60;;
9761;SDS011;4920;49.594;11.022;2023-07-08T08:33:27;5.05;;;4.20;;
9761;SDS011;4920;49.594;11.022;2023-07-08T08:35:57;6.18;;;3.95;;
9761;SDS011;4920;49.594;11.022;2023-07-08T08:38:27;5.03;;;4.50;;
9761;SDS011;4920;49.594;11.022;2023-07-08T08:40:56;5.25;;;4.43;;
9761;SDS011;4920;49.594;11.022;2023-07-08T08:43:28;7.50;;;4.70;;
9761;SDS011;4920;49.594;11.022;2023-07-08T08:46:06;8.02;;;4.10;;
9761;SDS011;4920;49.594;11.022;2023-07-08T08:48:41;8.18;;;4.85;;
9761;SDS011;4920;49.594;11.022;2023-07-08T08:51:19;5.15;;;4.35;;
9761;SDS011;4920;49.594;11.022;2023-07-08T08:53:48;4.57;;;4.03;;
9761;SDS011;4920;49.594;11.022;2023-07-08T08:56:21;5.10;;;4.47;;
9761;SDS011;4920;49.594;11.022;2023-07-08T08:58:55;5.13;;;4.40;;
9761;SDS011;4920;49.594;11.022;2023-07-08T09:01:30;5.68;;;3.95;;
9761;SDS011;4920;49.594;11.022;2023-07-08T09:04:03;5.25;;;3.97;;
9761;SDS011;4920;49.594;11.022;2023-07-08T09:06:38;4.82;;;3.88;;
9761;SDS011;4920;49.594;11.022;2023-07-08T09:09:09;5.35;;;4.25;;
9761;SDS011;4920;49.594;11.022;2023-07-08T09:11:44;5.57;;;4.40;;
9761;SDS011;4920;49.594;11.022;2023-07-08T09:14:22;5.15;;;4.22;;
9761;SDS011;4920;49.594;11.022;2023-07-08T09:16:54;5.20;;;4.10;;
9761;SDS011;4920;49.594;11.022;2023-07-08T09:19:28;6.25;;;4.38;;
9761;SDS011;4920;49.594;11.022;2023-07-08T09:22:02;4.60;;;4.15;;
9761;SDS011;4920;49.594;11.022;2023-07-08T09:24:36;5.85;;;3.85;;
9761;SDS011;4920;49.594;11.022;2023-07-08T09:27:10;4.82;;;4.13;;
9761;SDS011;4920;49.594;11.022;2023-07-08T09:29:39;4.78;;;3.75;;
9761;SDS011;4920;49.594;11.022;2023-07-08T09:32:13;4.45;;;4.05;;
9761;SDS011;4920;49.594;11.022;2023-07-08T09:34:45;4.80;;;4.30;;
9761;SDS011;4920;49.594;11.022;2023-07-08T09:37:20;7.72;;;4.40;;
9761;SDS011;4920;49.594;11.022;2023-07-08T09:39:54;6.20;;;4.20;;
9761;SDS011;4920;49.594;11.022;2023-07-08T09:42:25;5.75;;;4.15;;
9761;SDS011;4920;49.594;11.022;2023-07-08T09:44:57;5.35;;;3.92;;
9761;SDS011;4920;49.594;11.022;2023-07-08T09:47:29;5.93;;;4.32;;
9761;SDS011;4920;49.594;11.022;2023-07-08T09:50:03;7.82;;;4.20;;
9761;SDS011;4920;49.594;11.022;2023-07-08T09:52:42;5.43;;;4.10;;
9761;SDS011;4920;49.594;11.022;2023-07-08T09:55:11;5.70;;;4.43;;
9761;SDS011;4920;49.594;11.022;2023-07-08T09:57:40;5.25;;;4.35;;
9761;SDS011;4920;49.594;11.022;2023-07-08T10:00:12;4.43;;;4.03;;
9761;SDS011;4920;49.594;11.022;2023-07-08T10:02:43;4.68;;;4.18;;
9761;SDS011;4920;49.594;11.022;2023-07-08T10:05:15;5.40;;;4.13;;
9761;SDS011;4920;49.594;11.022;2023-07-08T10:07:48;6.07;;;4.25;;
9761;SDS011;4920;49.594;11.022;2023-07-08T10:10:22;5.68;;;4.40;;
9761;SDS011;4920;49.594;11.022;2023-07-08T10:12:56;6.90;;;4.22;;
9761;SDS011;4920;49.594;11.022;2023-07-08T10:15:30;4.47;;;4.07;;
9761;SDS011;4920;49.594;11.022;2023-07-08T10:18:03;4.57;;;4.07;;
9761;SDS011;4920;49.594;11.022;2023-07-08T10:20:36;8.80;;;4.03;;
9761;SDS011;4920;49.594;11.022;2023-07-08T10:23:18;5.95;;;4.03;;
9761;SDS011;4920;49.594;11.022;2023-07-08T10:26:08;5.95;;;4.00;;
9761;SDS011;4920;49.594;11.022;2023-07-08T10:28:43;4.45;;;4.03;;
9761;SDS011;4920;49.594;11.022;2023-07-08T10:31:19;4.60;;;3.78;;
9761;SDS011;4920;49.594;11.022;2023-07-08T10:34:06;4.90;;;4.38;;
9761;SDS011;4920;49.594;11.022;2023-07-08T10:37:02;6.40;;;4.05;;
9761;SDS011;4920;49.594;11.022;2023-07-08T10:42:40;5.20;;;3.92;;
9761;SDS011;4920;49.594;11.022;2023-07-08T10:45:20;6.78;;;3.88;;
9761;SDS011;4920;49.594;11.022;2023-07-08T10:48:02;5.75;;;4.05;;
9761;SDS011;4920;49.594;11.022;2023-07-08T10:50:50;5.13;;;4.20;;
9761;SDS011;4920;49.594;11.022;2023-07-08T10:53:34;4.15;;;3.70;;
9761;SDS011;4920;49.594;11.022;2023-07-08T10:56:27;4.43;;;3.72;;
9761;SDS011;4920;49.594;11.022;2023-07-08T10:59:06;6.15;;;3.78;;
9761;SDS011;4920;49.594;11.022;2023-07-08T11:01:51;4.90;;;3.78;;
9761;SDS011;4920;49.594;11.022;2023-07-08T11:04:41;4.85;;;3.90;;
9761;SDS011;4920;49.594;11.022;2023-07-08T11:07:24;4.60;;;4.15;;
9761;SDS011;4920;49.594;11.022;2023-07-08T11:10:00;4.65;;;4.00;;
9761;SDS011;4920;49.594;11.022;2023-07-08T11:12:36;4.50;;;4.10;;
9761;SDS011;4920;49.594;11.022;2023-07-08T11:15:13;5.82;;;4.45;;
9761;SDS011;4920;49.594;11.022;2023-07-08T11:17:47;4.10;;;3.70;;
9761;SDS011;4920;49.594;11.022;2023-07-08T11:20:21;6.15;;;4.30;;
9761;SDS011;4920;49.594;11.022;2023-07-08T11:22:54;5.25;;;3.90;;
9761;SDS011;4920;49.594;11.022;2023-07-08T11:25:28;6.70;;;4.05;;
9761;SDS011;4920;49.594;11.022;2023-07-08T11:28:01;4.70;;;4.20;;
9761;SDS011;4920;49.594;11.022;2023-07-08T11:30:34;5.93;;;4.07;;
9761;SDS011;4920;49.594;11.022;2023-07-08T11:33:08;4.88;;;3.90;;
9761;SDS011;4920;49.594;11.022;2023-07-08T11:35:40;5.00;;;4.28;;
9761;SDS011;4920;49.594;11.022;2023-07-08T11:38:13;5.15;;;4.20;;
9761;SDS011;4920;49.594;11.022;2023-07-08T11:40:53;4.93;;;4.32;;
9761;SDS011;4920;49.594;11.022;2023-07-08T11:43:27;4.72;;;3.97;;
9761;SDS011;4920;49.594;11.022;2023-07-08T11:46:11;5.50;;;4.25;;
9761;SDS011;4920;49.594;11.022;2023-07-08T11:48:43;4.32;;;3.92;;
9761;SDS011;4920;49.594;11.022;2023-07-08T11:51:17;4.45;;;3.80;;
9761;SDS011;4920;49.594;11.022;2023-07-08T11:53:50;4.15;;;3.75;;
9761;SDS011;4920;49.594;11.022;2023-07-08T11:56:28;5.38;;;4.03;;
9761;SDS011;4920;49.594;11.022;2023-07-08T11:59:17;4.45;;;4.00;;
9761;SDS011;4920;49.594;11.022;2023-07-08T12:01:48;4.43;;;3.95;;
9761;SDS011;4920;49.594;11.022;2023-07-08T12:04:25;4.30;;;3.90;;
9761;SDS011;4920;49.594;11.022;2023-07-08T12:07:03;7.38;;;4.30;;
9761;SDS011;4920;49.594;11.022;2023-07-08T12:09:38;5.72;;;4.25;;
9761;SDS011;4920;49.594;11.022;2023-07-08T12:12:15;5.93;;;3.92;;
9761;SDS011;4920;49.594;11.022;2023-07-08T12:14:53;7.18;;;3.90;;
9761;SDS011;4920;49.594;11.022;2023-07-08T12:17:28;4.65;;;4.00;;
9761;SDS011;4920;49.594;11.022;2023-07-08T12:19:58;6.30;;;4.30;;
9761;SDS011;4920;49.594;11.022;2023-07-08T12:22:32;4.60;;;3.90;;
9761;SDS011;4920;49.594;11.022;2023-07-08T12:25:01;4.38;;;3.95;;
9761;SDS011;4920;49.594;11.022;2023-07-08T12:27:32;5.05;;;4.30;;
9761;SDS011;4920;49.594;11.022;2023-07-08T12:30:02;5.68;;;4.30;;
9761;SDS011;4920;49.594;11.022;2023-07-08T12:32:31;5.03;;;4.10;;
9761;SDS011;4920;49.594;11.022;2023-07-08T12:35:00;4.68;;;4.10;;
9761;SDS011;4920;49.594;11.022;2023-07-08T12:37:30;6.15;;;4.00;;
9761;SDS011;4920;49.594;11.022;2023-07-08T12:39:59;6.40;;;4.53;;
9761;SDS011;4920;49.594;11.022;2023-07-08T12:42:32;5.60;;;4.10;;
9761;SDS011;4920;49.594;11.022;2023-07-08T12:45:04;6.32;;;3.97;;
9761;SDS011;4920;49.594;11.022;2023-07-08T12:47:42;5.68;;;4.18;;
9761;SDS011;4920;49.594;11.022;2023-07-08T12:50:12;6.45;;;4.00;;
9761;SDS011;4920;49.594;11.022;2023-07-08T12:52:42;6.10;;;4.50;;
9761;SDS011;4920;49.594;11.022;2023-07-08T12:55:12;5.38;;;4.13;;
9761;SDS011;4920;49.594;11.022;2023-07-08T12:57:42;5.03;;;4.45;;
9761;SDS011;4920;49.594;11.022;2023-07-08T13:00:16;5.22;;;3.92;;
9761;SDS011;4920;49.594;11.022;2023-07-08T13:02:50;4.85;;;4.30;;
9761;SDS011;4920;49.594;11.022;2023-07-08T13:05:25;4.70;;;4.00;;
9761;SDS011;4920;49.594;11.022;2023-07-08T13:07:54;6.70;;;4.30;;
9761;SDS011;4920;49.594;11.022;2023-07-08T13:10:24;5.05;;;4.30;;
9761;SDS011;4920;49.594;11.022;2023-07-08T13:12:57;5.65;;;4.22;;
9761;SDS011;4920;49.594;11.022;2023-07-08T13:15:31;6.13;;;4.47;;
9761;SDS011;4920;49.594;11.022;2023-07-08T13:18:06;5.28;;;4.25;;
9761;SDS011;4920;49.594;11.022;2023-07-08T13:20:42;5.00;;;4.05;;
9761;SDS011;4920;49.594;11.022;2023-07-08T13:23:13;8.30;;;4.38;;
9761;SDS011;4920;49.594;11.022;2023-07-08T13:25:43;5.20;;;4.55;;
9761;SDS011;4920;49.594;11.022;2023-07-08T13:28:15;5.55;;;4.57;;
9761;SDS011;4920;49.594;11.022;2023-07-08T13:30:53;5.57;;;4.60;;
9761;SDS011;4920;49.594;11.022;2023-07-08T13:33:23;5.18;;;4.63;;
9761;SDS011;4920;49.594;11.022;2023-07-08T13:35:56;5.93;;;4.22;;
9761;SDS011;4920;49.594;11.022;2023-07-08T13:38:26;5.90;;;4.72;;
9761;SDS011;4920;49.594;11.022;2023-07-08T13:41:00;7.10;;;5.03;;
9761;SDS011;4920;49.594;11.022;2023-07-08T13:43:31;5.95;;;4.93;;
9761;SDS011;4920;49.594;11.022;2023-07-08T13:46:03;5.68;;;4.95;;
9761;SDS011;4920;49.594;11.022;2023-07-08T13:48:34;6.32;;;4.72;;
9761;SDS011;4920;49.594;11.022;2023-07-08T13:51:07;7.97;;;4.82;;
9761;SDS011;4920;49.594;11.022;2023-07-08T13:53:42;6.32;;;4.53;;
9761;SDS011;4920;49.594;11.022;2023-07-08T13:56:13;6.45;;;4.50;;
9761;SDS011;4920;49.594;11.022;2023-07-08T13:58:46;9.73;;;4.30;;
9761;SDS011;4920;49.594;11.022;2023-07-08T14:01:19;5.55;;;4.70;;
9761;SDS011;4920;49.594;11.022;2023-07-08T14:03:50;5.32;;;4.20;;
9761;SDS011;4920;49.594;11.022;2023-07-08T14:06:21;6.10;;;5.35;;
9761;SDS011;4920;49.594;11.022;2023-07-08T14:08:54;9.55;;;4.80;;
9761;SDS011;4920;49.594;11.022;2023-07-08T14:11:25;5.50;;;4.65;;
9761;SDS011;4920;49.594;11.022;2023-07-08T14:13:53;5.45;;;4.63;;
9761;SDS011;4920;49.594;11.022;2023-07-08T14:16:25;6.22;;;4.68;;
9761;SDS011;4920;49.594;11.022;2023-07-08T14:18:56;6.75;;;5.07;;
9761;SDS011;4920;49.594;11.022;2023-07-08T14:21:25;7.63;;;4.60;;
9761;SDS011;4920;49.594;11.022;2023-07-08T14:23:54;5.88;;;4.72;;
9761;SDS011;4920;49.594;11.022;2023-07-08T14:26:22;7.18;;;4.57;;
9761;SDS011;4920;49.594;11.022;2023-07-08T14:28:51;4.90;;;4.30;;
9761;SDS011;4920;49.594;11.022;2023-07-08T14:31:20;6.20;;;5.00;;
9761;SDS011;4920;49.594;11.022;2023-07-08T14:33:53;6.78;;;4.50;;
9761;SDS011;4920;49.594;11.022;2023-07-08T14:36:31;6.18;;;5.15;;
9761;SDS011;4920;49.594;11.022;2023-07-08T14:38:59;8.90;;;4.80;;
9761;SDS011;4920;49.594;11.022;2023-07-08T14:41:28;6.07;;;4.78;;
9761;SDS011;4920;49.594;11.022;2023-07-08T14:43:57;5.32;;;4.82;;
9761;SDS011;4920;49.594;11.022;2023-07-08T14:46:26;5.63;;;4.80;;
9761;SDS011;4920;49.594;11.022;2023-07-08T14:48:56;5.43;;;4.80;;
9761;SDS011;4920;49.594;11.022;2023-07-08T14:51:24;5.70;;;4.97;;
9761;SDS011;4920;49.594;11.022;2023-07-08T14:53:53;7.20;;;4.50;;
9761;SDS011;4920;49.594;11.022;2023-07-08T14:56:22;6.90;;;4.85;;
9761;SDS011;4920;49.594;11.022;2023-07-08T14:58:51;7.13;;;4.93;;
9761;SDS011;4920;49.594;11.022;2023-07-08T15:01:20;4.82;;;4.32;;
9761;SDS011;4920;49.594;11.022;2023-07-08T15:03:51;7.35;;;4.85;;
9761;SDS011;4920;49.594;11.022;2023-07-08T15:06:21;5.97;;;4.85;;
9761;SDS011;4920;49.594;11.022;2023-07-08T15:08:49;5.90;;;4.50;;
9761;SDS011;4920;49.594;11.022;2023-07-08T15:11:18;5.50;;;4.60;;
9761;SDS011;4920;49.594;11.022;2023-07-08T15:13:48;5.90;;;4.63;;
9761;SDS011;4920;49.594;11.022;2023-07-08T15:16:17;5.25;;;4.70;;
9761;SDS011;4920;49.594;11.022;2023-07-08T15:18:47;6.38;;;4.43;;
9761;SDS011;4920;49.594;11.022;2023-07-08T15:21:16;5.65;;;4.55;;
9761;SDS011;4920;49.594;11.022;2023-07-08T15:23:46;5.28;;;4.68;;
9761;SDS011;4920;49.594;11.022;2023-07-08T15:26:15;7.07;;;4.38;;
9761;SDS011;4920;49.594;11.022;2023-07-08T15:28:45;4.93;;;4.35;;